Terminal Aerodrome Forecast
Issued by NWS

Home | Current Version | Previous Version | Text Only | Print | Product List | Glossary On
Versions: 1 2 3 4 5 6 7 8 9 10 11 12 13 14 15 16 17 18 19 20 21
361
FTUS44 KTSA 210540
TAFMLC
TAF
KMLC 210540Z 2106/2206 00000KT 1SM BR SKC
      TEMPO 2106/2109 1/2SM FG VV001
     FM210900 00000KT 1/2SM FG SKC
      TEMPO 2109/2112 1/4SM FG VV003
     FM211500 34008KT P6SM SKC
     FM220200 35003KT P6SM SKC=

USA.gov is the U.S. government's official web portal to all federal, state and local government web resources and services.